Time,TemperatureF,DewpointF,PressureIn,WindDirection,WindDirectionDegrees,WindSpeedMPH,WindSpeedGustMPH,Humidity,HourlyPrecipIn,Conditions,Clouds,dailyrainin,SolarRadiationWatts/m^2,SoftwareType,DateUTC
2013-02-20 00:00:00,59.7,57.7,30.04,NW,321,0.0,0.0,93,0.00,OVC,,0.05,0.0,WeatherDisplay:10.37,2013-02-20 05:00:00,
2013-02-20 00:05:00,59.5,57.5,30.04,NW,321,0.0,0.0,93,0.00,RA,,0.00,0.0,WeatherDisplay:10.37,2013-02-20 05:05:00,
2013-02-20 00:10:00,59.4,57.4,30.04,NW,321,0.0,0.0,93,0.00,BKN,,0.00,0.0,WeatherDisplay:10.37,2013-02-20 05:10:00,
2013-02-20 00:15:00,59.5,57.5,30.04,NW,321,0.0,0.0,93,0.00,BKN,,0.00,0.0,WeatherDisplay:10.37,2013-02-20 05:15:00,
2013-02-20 00:20:00,59.5,57.5,30.04,NW,321,0.0,0.0,93,0.00,BKN,,0.00,0.0,WeatherDisplay:10.37,2013-02-20 05:20:00,
2013-02-20 00:25:00,59.5,57.5,30.04,NW,321,0.0,0.0,93,0.00,BKN,,0.00,0.0,WeatherDisplay:10.37,2013-02-20 05:25:00,
2013-02-20 00:30:00,59.4,57.4,30.04,NW,321,0.0,0.0,93,0.00,BKN,,0.00,0.0,WeatherDisplay:10.37,2013-02-20 05:30:00,
2013-02-20 00:35:00,59.3,57.3,30.04,NW,321,0.0,0.0,93,0.00,BKN,,0.00,0.0,WeatherDisplay:10.37,2013-02-20 05:35:00,
2013-02-20 00:40:00,59.1,57.1,30.04,NW,321,0.0,0.0,93,0.00,BKN,,0.00,0.0,WeatherDisplay:10.37,2013-02-20 05:40:00,
2013-02-20 00:46:00,58.8,56.8,30.03,NW,321,0.0,0.0,93,0.00,BKN,,0.00,0.0,WeatherDisplay:10.37,2013-02-20 05:46:00,
2013-02-20 00:51:00,58.6,56.6,30.03,NW,321,0.0,0.0,93,0.00,BKN,,0.00,0.0,WeatherDisplay:10.37,2013-02-20 05:51:00,
2013-02-20 00:56:00,58.2,56.2,30.03,NW,321,0.0,0.0,93,0.00,BKN,,0.00,0.0,WeatherDisplay:10.37,2013-02-20 05:56:00,
2013-02-20 01:01:00,57.9,55.9,30.04,NW,321,0.0,0.0,93,0.00,BKN,,0.00,0.0,WeatherDisplay:10.37,2013-02-20 06:01:00,
2013-02-20 01:06:00,57.5,55.5,30.04,NW,321,0.0,0.0,93,0.00,SCT,,0.00,0.0,WeatherDisplay:10.37,2013-02-20 06:06:00,
2013-02-20 01:11:00,57.5,55.8,30.04,NW,321,0.0,0.0,94,0.00,SCT,,0.00,0.0,WeatherDisplay:10.37,2013-02-20 06:11:00,
2013-02-20 01:16:00,57.5,55.8,30.04,NW,321,0.0,0.0,94,0.00,SCT,,0.00,0.0,WeatherDisplay:10.37,2013-02-20 06:16:00,
2013-02-20 01:21:00,57.5,55.8,30.04,NW,321,0.0,0.0,94,0.00,SCT,,0.00,0.0,WeatherDisplay:10.37,2013-02-20 06:21:00,
2013-02-20 01:26:00,57.5,55.8,30.04,NW,321,0.0,0.0,94,0.00,SCT,,0.00,0.0,WeatherDisplay:10.37,2013-02-20 06:26:00,
2013-02-20 01:31:00,57.1,55.4,30.03,NW,321,0.0,0.0,94,0.00,SCT,,0.00,0.0,WeatherDisplay:10.37,2013-02-20 06:31:00,
2013-02-20 01:36:00,56.9,55.2,30.03,NW,321,0.0,0.0,94,0.00,SCT,,0.00,0.0,WeatherDisplay:10.37,2013-02-20 06:36:00,
2013-02-20 01:41:00,57.1,55.4,30.03,NW,321,0.0,0.0,94,0.00,SCT,,0.00,0.0,WeatherDisplay:10.37,2013-02-20 06:41:00,
2013-02-20 01:46:00,57.1,55.4,30.03,NW,321,0.0,0.0,94,0.00,SCT,,0.00,0.0,WeatherDisplay:10.37,2013-02-20 06:46:00,
2013-02-20 01:51:00,57.3,55.6,30.03,NW,321,0.0,0.0,94,0.00,SCT,,0.00,0.0,WeatherDisplay:10.37,2013-02-20 06:51:00,
2013-02-20 01:56:00,57.6,56.2,30.03,NW,321,0.0,0.0,95,0.00,SCT,,0.00,0.0,WeatherDisplay:10.37,2013-02-20 06:56:00,
2013-02-20 02:01:00,57.7,56.0,30.04,NW,321,0.0,0.0,94,0.00,BKN,,0.00,0.0,WeatherDisplay:10.37,2013-02-20 07:01:00,
2013-02-20 02:06:00,57.7,56.0,30.04,NW,321,0.0,0.0,94,0.00,BKN,,0.00,0.0,WeatherDisplay:10.37,2013-02-20 07:06:00,
2013-02-20 02:11:00,57.5,55.8,30.04,NW,321,0.0,0.0,94,0.00,BKN,,0.00,0.0,WeatherDisplay:10.37,2013-02-20 07:11:00,
2013-02-20 02:16:00,57.2,55.5,30.04,NW,321,0.0,0.0,94,0.00,BKN,,0.00,0.0,WeatherDisplay:10.37,2013-02-20 07:16:00,
2013-02-20 02:21:00,57.0,55.3,30.04,NW,321,0.0,0.0,94,0.00,BKN,,0.00,0.0,WeatherDisplay:10.37,2013-02-20 07:21:00,
2013-02-20 02:26:00,56.8,55.1,30.04,NW,321,0.0,0.0,94,0.00,BKN,,0.00,0.0,WeatherDisplay:10.37,2013-02-20 07:26:00,
2013-02-20 02:31:00,56.7,55.0,30.04,NW,321,0.0,0.0,94,0.00,BKN,,0.00,0.0,WeatherDisplay:10.37,2013-02-20 07:31:00,
2013-02-20 02:36:00,56.4,54.7,30.04,NW,321,0.0,0.0,94,0.00,BKN,,0.00,0.0,WeatherDisplay:10.37,2013-02-20 07:36:00,
2013-02-20 02:41:00,56.2,54.5,30.04,NW,321,0.0,0.0,94,0.00,BKN,,0.00,0.0,WeatherDisplay:10.37,2013-02-20 07:41:00,
2013-02-20 02:46:00,56.1,54.4,30.04,NW,321,0.0,0.0,94,0.00,BKN,,0.00,0.0,WeatherDisplay:10.37,2013-02-20 07:46:00,
2013-02-20 02:51:00,55.7,54.0,30.04,NW,321,1.4,1.4,94,0.00,BKN,,0.00,0.0,WeatherDisplay:10.37,2013-02-20 07:51:00,
2013-02-20 02:56:00,55.9,54.2,30.04,NNE,17,5.8,5.8,94,0.00,BKN,,0.00,0.0,WeatherDisplay:10.37,2013-02-20 07:56:00,
2013-02-20 03:01:00,55.8,54.1,30.04,NNW,333,6.9,6.9,94,0.00,SCT,,0.00,0.0,WeatherDisplay:10.37,2013-02-20 08:01:00,
2013-02-20 03:06:00,55.7,54.0,30.04,NNW,333,4.6,4.6,94,0.00,SCT,,0.00,0.0,WeatherDisplay:10.37,2013-02-20 08:06:00,
2013-02-20 03:11:00,55.5,53.5,30.04,North,349,5.8,6.7,93,0.00,SCT,,0.00,0.0,WeatherDisplay:10.37,2013-02-20 08:11:00,
2013-02-20 03:16:00,55.3,53.3,30.04,North,349,2.3,2.3,93,0.00,SCT,,0.00,0.0,WeatherDisplay:10.37,2013-02-20 08:16:00,
2013-02-20 03:21:00,55.1,52.8,30.04,NW,311,4.6,4.6,92,0.00,SCT,,0.00,0.0,WeatherDisplay:10.37,2013-02-20 08:21:00,
2013-02-20 03:26:00,54.8,52.5,30.04,NNW,345,6.9,6.9,92,0.00,SCT,,0.00,0.0,WeatherDisplay:10.37,2013-02-20 08:26:00,
2013-02-20 03:31:00,54.5,51.9,30.04,North,10,8.1,8.1,91,0.00,SCT,,0.00,0.0,WeatherDisplay:10.37,2013-02-20 08:31:00,
2013-02-20 03:36:00,54.3,51.4,30.04,NNE,17,9.2,9.2,90,0.00,SCT,,0.00,0.0,WeatherDisplay:10.37,2013-02-20 08:36:00,
2013-02-20 03:41:00,54.0,50.8,30.04,North,10,6.9,6.9,89,0.00,SCT,,0.00,0.0,WeatherDisplay:10.37,2013-02-20 08:41:00,
2013-02-20 03:46:00,53.7,50.2,30.04,North,5,6.9,6.9,88,0.00,SCT,,0.00,0.0,WeatherDisplay:10.37,2013-02-20 08:46:00,
2013-02-20 03:51:00,53.5,49.7,30.04,North,355,11.5,11.5,87,0.00,SCT,,0.00,0.0,WeatherDisplay:10.37,2013-02-20 08:51:00,
2013-02-20 03:56:00,53.4,49.0,30.04,NNE,12,8.3,8.3,85,0.00,SCT,,0.00,0.0,WeatherDisplay:10.37,2013-02-20 08:56:00,
2013-02-20 04:01:00,53.3,48.3,30.04,NNW,336,12.7,12.7,83,0.00,SCT,,0.00,0.0,WeatherDisplay:10.37,2013-02-20 09:01:00,
2013-02-20 04:06:00,53.1,47.7,30.04,NE,36,13.7,13.7,82,0.00,SCT,,0.00,0.0,WeatherDisplay:10.37,2013-02-20 09:06:00,
2013-02-20 04:11:00,53.0,47.7,30.04,North,360,8.1,8.1,82,0.00,SCT,,0.00,0.0,WeatherDisplay:10.37,2013-02-20 09:11:00,
2013-02-20 04:16:00,52.8,47.1,30.04,North,5,9.2,9.2,81,0.00,SCT,,0.00,0.0,WeatherDisplay:10.37,2013-02-20 09:16:00,
2013-02-20 04:21:00,52.7,46.7,30.04,North,11,9.2,9.2,80,0.00,SCT,,0.00,0.0,WeatherDisplay:10.37,2013-02-20 09:21:00,
2013-02-20 04:26:00,52.7,46.4,30.04,North,355,11.5,11.5,79,0.00,,,0.00,0.0,WeatherDisplay:10.37,2013-02-20 09:26:00,
2013-02-20 04:31:00,52.6,46.3,30.05,North,355,9.2,9.8,79,0.00,SCT,,0.00,0.0,WeatherDisplay:10.37,2013-02-20 09:31:00,
2013-02-20 04:36:00,52.4,46.1,30.05,North,5,8.1,8.1,79,0.00,SCT,,0.00,0.0,WeatherDisplay:10.37,2013-02-20 09:36:00,
2013-02-20 04:41:00,52.2,45.9,30.05,North,5,6.9,6.9,79,0.00,SCT,,0.00,0.0,WeatherDisplay:10.37,2013-02-20 09:41:00,
2013-02-20 18:53:00,56.1,42.8,30.04,ESE,109,4.6,4.8,61,0.00,SCT,,0.00,0.0,WeatherDisplay:10.37,2013-02-20 23:53:00,
2013-02-20 18:58:00,55.9,43.1,30.04,ESE,109,1.1,0.0,62,0.00,SCT,,0.00,0.0,WeatherDisplay:10.37,2013-02-20 23:58:00,
2013-02-20 19:03:00,55.7,43.3,30.05,ESE,109,1.1,1.1,63,0.00,BKN,,0.00,0.0,WeatherDisplay:10.37,2013-02-21 00:03:00,
2013-02-20 19:08:00,55.2,43.2,30.05,ESE,109,1.1,0.0,64,0.00,BKN,,0.00,0.0,WeatherDisplay:10.37,2013-02-21 00:08:00,
2013-02-20 19:13:00,54.9,43.4,30.05,ESE,109,0.0,0.0,65,0.00,BKN,,0.00,0.0,WeatherDisplay:10.37,2013-02-21 00:13:00,
2013-02-20 19:18:00,54.6,43.5,30.06,ESE,109,1.1,0.0,66,0.00,BKN,,0.00,0.0,WeatherDisplay:10.37,2013-02-21 00:18:00,
2013-02-20 19:24:00,54.4,43.3,30.06,ESE,109,0.0,0.0,66,0.00,BKN,,0.00,0.0,WeatherDisplay:10.37,2013-02-21 00:24:00,
2013-02-20 19:29:00,54.2,43.1,30.06,ESE,109,0.0,0.0,66,0.00,BKN,,0.00,0.0,WeatherDisplay:10.37,2013-02-21 00:29:00,
2013-02-20 19:34:00,53.9,43.2,30.07,ESE,109,0.0,0.0,67,0.00,BKN,,0.00,0.0,WeatherDisplay:10.37,2013-02-21 00:34:00,
2013-02-20 19:39:00,53.2,43.7,30.07,ESE,109,0.0,0.0,70,0.00,BKN,,0.00,0.0,WeatherDisplay:10.37,2013-02-21 00:39:00,
2013-02-20 19:44:00,53.0,43.5,30.07,ESE,109,0.0,0.0,70,0.00,BKN,,0.00,0.0,WeatherDisplay:10.37,2013-02-21 00:44:00,
2013-02-20 19:49:00,52.8,43.7,30.06,ESE,109,0.0,0.0,71,0.00,BKN,,0.00,0.0,WeatherDisplay:10.37,2013-02-21 00:49:00,
2013-02-20 19:54:00,52.9,44.1,30.06,ESE,109,0.0,0.0,72,0.00,BKN,,0.00,0.0,WeatherDisplay:10.37,2013-02-21 00:54:00,
2013-02-20 19:59:00,52.7,43.9,30.06,ESE,109,0.0,0.0,72,0.00,BKN,,0.00,0.0,WeatherDisplay:10.37,2013-02-21 00:59:00,
2013-02-20 20:04:00,52.5,44.1,30.07,ESE,109,0.0,0.0,73,0.00,BKN,,0.00,0.0,WeatherDisplay:10.37,2013-02-21 01:04:00,
2013-02-20 20:09:00,52.3,44.3,30.07,ESE,109,0.0,0.0,74,0.00,BKN,,0.00,0.0,WeatherDisplay:10.37,2013-02-21 01:09:00,
2013-02-20 20:14:00,52.1,44.1,30.07,ESE,109,0.0,0.0,74,0.00,BKN,,0.00,0.0,WeatherDisplay:10.37,2013-02-21 01:14:00,
2013-02-20 20:19:00,52.2,44.2,30.07,ESE,109,0.0,0.0,74,0.00,BKN,,0.00,0.0,WeatherDisplay:10.37,2013-02-21 01:19:00,
2013-02-20 20:24:00,52.4,44.0,30.07,ESE,109,1.1,0.0,73,0.00,BKN,,0.00,0.0,WeatherDisplay:10.37,2013-02-21 01:24:00,
2013-02-20 20:29:00,52.8,44.4,30.07,ESE,109,0.0,0.0,73,0.00,BKN,,0.00,0.0,WeatherDisplay:10.37,2013-02-21 01:29:00,
2013-02-20 20:34:00,52.9,44.5,30.04,ESE,109,0.0,0.0,73,0.00,BKN,,0.00,0.0,WeatherDisplay:10.37,2013-02-21 01:34:00,
2013-02-20 20:39:00,53.0,44.6,30.04,ESE,109,2.3,2.3,73,0.00,BKN,,0.00,0.0,WeatherDisplay:10.37,2013-02-21 01:39:00,
2013-02-20 20:44:00,53.1,44.3,30.04,ESE,109,1.1,1.1,72,0.00,BKN,,0.00,0.0,WeatherDisplay:10.37,2013-02-21 01:44:00,
2013-02-20 20:49:00,53.3,44.1,30.04,ESE,109,0.0,0.0,71,0.00,BKN,,0.00,0.0,WeatherDisplay:10.37,2013-02-21 01:49:00,
2013-02-20 20:54:00,53.0,44.2,30.04,ESE,109,0.0,0.0,72,0.00,BKN,,0.00,0.0,WeatherDisplay:10.37,2013-02-21 01:54:00,
2013-02-20 20:59:00,52.5,44.1,30.04,ESE,109,0.0,0.0,73,0.00,BKN,,0.00,0.0,WeatherDisplay:10.37,2013-02-21 01:59:00,
2013-02-20 21:04:00,51.9,43.9,30.04,ESE,109,0.0,0.0,74,0.00,BKN,,0.00,0.0,WeatherDisplay:10.37,2013-02-21 02:04:00,
2013-02-20 21:09:00,51.5,43.8,30.04,ESE,109,0.0,0.0,75,0.00,BKN,,0.00,0.0,WeatherDisplay:10.37,2013-02-21 02:09:00,
2013-02-20 21:14:00,51.4,44.4,30.06,ESE,109,0.0,0.0,77,0.00,BKN,,0.00,0.0,WeatherDisplay:10.37,2013-02-21 02:14:00,
2013-02-20 21:19:00,51.0,44.4,30.06,ESE,109,0.0,0.0,78,0.00,BKN,,0.00,0.0,WeatherDisplay:10.37,2013-02-21 02:19:00,
2013-02-20 21:24:00,51.1,44.1,30.06,ESE,109,0.0,0.0,77,0.00,BKN,,0.00,0.0,WeatherDisplay:10.37,2013-02-21 02:24:00,
2013-02-20 21:29:00,51.5,44.5,30.06,ESE,109,0.0,0.0,77,0.00,BKN,,0.00,0.0,WeatherDisplay:10.37,2013-02-21 02:29:00,
2013-02-20 21:34:00,51.4,44.8,30.06,ESE,109,0.0,0.0,78,0.00,BKN,,0.00,0.0,WeatherDisplay:10.37,2013-02-21 02:34:00,
2013-02-20 21:39:00,51.0,44.7,30.06,ESE,109,0.0,0.0,79,0.00,BKN,,0.00,0.0,WeatherDisplay:10.37,2013-02-21 02:39:00,
2013-02-20 21:44:00,51.1,44.8,30.06,ESE,109,0.0,0.0,79,0.00,BKN,,0.00,0.0,WeatherDisplay:10.37,2013-02-21 02:44:00,
2013-02-20 21:49:00,50.9,44.9,30.06,ESE,109,0.0,0.0,80,0.00,BKN,,0.00,0.0,WeatherDisplay:10.37,2013-02-21 02:49:00,
2013-02-20 21:54:00,51.0,45.0,30.06,ESE,109,0.0,0.0,80,0.00,BKN,,0.00,0.0,WeatherDisplay:10.37,2013-02-21 02:54:00,
2013-02-20 21:59:00,51.2,45.2,30.05,ESE,109,0.0,0.0,80,0.00,BKN,,0.00,0.0,WeatherDisplay:10.37,2013-02-21 02:59:00,
2013-02-20 22:04:00,51.2,45.2,30.05,ESE,109,0.0,0.0,80,0.00,BKN,,0.00,0.0,WeatherDisplay:10.37,2013-02-21 03:04:00,
2013-02-20 22:09:00,51.2,44.9,30.05,ESE,109,0.0,0.0,79,0.00,BKN,,0.00,0.0,WeatherDisplay:10.37,2013-02-21 03:09:00,
2013-02-20 22:14:00,51.1,44.8,30.05,ESE,109,0.0,0.0,79,0.00,BKN,,0.00,0.0,WeatherDisplay:10.37,2013-02-21 03:14:00,
2013-02-20 22:19:00,51.2,45.2,30.05,ESE,109,0.0,0.0,80,0.00,BKN,,0.00,0.0,WeatherDisplay:10.37,2013-02-21 03:19:00,
2013-02-20 22:24:00,50.9,44.9,30.05,ESE,109,0.0,0.0,80,0.00,BKN,,0.00,0.0,WeatherDisplay:10.37,2013-02-21 03:24:00,
2013-02-20 22:29:00,50.6,45.0,30.05,ESE,109,0.0,0.0,81,0.00,BKN,,0.00,0.0,WeatherDisplay:10.37,2013-02-21 03:29:00,
2013-02-20 22:34:00,50.1,44.5,30.05,ESE,109,0.0,0.0,81,0.00,BKN,,0.00,0.0,WeatherDisplay:10.37,2013-02-21 03:34:00,
2013-02-20 22:39:00,50.0,44.7,30.05,ESE,109,0.0,0.0,82,0.00,BKN,,0.00,0.0,WeatherDisplay:10.37,2013-02-21 03:39:00,
2013-02-20 22:44:00,49.4,44.1,30.06,ESE,109,0.0,0.0,82,0.00,BKN,,0.00,0.0,WeatherDisplay:10.37,2013-02-21 03:44:00,
2013-02-20 22:49:00,49.4,44.5,30.06,ESE,109,0.0,0.0,83,0.00,BKN,,0.00,0.0,WeatherDisplay:10.37,2013-02-21 03:49:00,
2013-02-20 22:54:00,49.4,44.1,30.06,ESE,109,0.0,0.0,82,0.00,BKN,,0.00,0.0,WeatherDisplay:10.37,2013-02-21 03:54:00,
2013-02-20 22:59:00,49.9,44.6,30.04,ESE,109,1.1,1.1,82,0.00,BKN,,0.00,0.0,WeatherDisplay:10.37,2013-02-21 03:59:00,
2013-02-20 23:04:00,49.5,44.2,30.04,ESE,109,0.0,0.0,82,0.00,BKN,,0.00,0.0,WeatherDisplay:10.37,2013-02-21 04:04:00,
2013-02-20 23:09:00,49.2,43.9,30.04,ESE,109,0.0,0.0,82,0.00,BKN,,0.00,0.0,WeatherDisplay:10.37,2013-02-21 04:09:00,
2013-02-20 23:14:00,49.0,44.1,30.04,ESE,109,0.0,0.0,83,0.00,BKN,,0.00,0.0,WeatherDisplay:10.37,2013-02-21 04:14:00,
2013-02-20 23:19:00,48.8,43.9,30.04,ESE,109,0.0,0.0,83,0.00,BKN,,0.00,0.0,WeatherDisplay:10.37,2013-02-21 04:19:00,
2013-02-20 23:24:00,48.7,44.1,30.04,ESE,109,0.0,0.0,84,0.00,BKN,,0.00,0.0,WeatherDisplay:10.37,2013-02-21 04:24:00,
2013-02-20 23:29:00,48.7,44.1,30.04,ESE,109,0.0,0.0,84,0.00,BKN,,0.00,0.0,WeatherDisplay:10.37,2013-02-21 04:29:00,
2013-02-20 23:34:00,48.7,44.4,30.04,ESE,109,0.0,0.0,85,0.00,BKN,,0.00,0.0,WeatherDisplay:10.37,2013-02-21 04:34:00,
2013-02-20 23:39:00,48.3,43.7,30.04,ESE,109,0.0,0.0,84,0.00,BKN,,0.00,0.0,WeatherDisplay:10.37,2013-02-21 04:39:00,
2013-02-20 23:44:00,47.9,43.6,30.04,ESE,109,0.0,0.0,85,0.00,BKN,,0.00,0.0,WeatherDisplay:10.37,2013-02-21 04:44:00,
2013-02-20 23:49:00,48.0,44.0,30.04,ESE,109,0.0,0.0,86,0.00,BKN,,0.00,0.0,WeatherDisplay:10.37,2013-02-21 04:49:00,
2013-02-20 23:54:00,47.4,43.4,30.04,ESE,109,0.0,0.0,86,0.00,BKN,,0.00,0.0,WeatherDisplay:10.37,2013-02-21 04:54:00,
2013-02-20 23:59:00,47.3,43.6,30.04,ESE,109,0.0,0.0,87,0.00,BKN,,0.00,0.0,WeatherDisplay:10.37,2013-02-21 04:59:00,